sensor_id;sensor_type;location;lat;lon;timestamp;P1;durP1;ratioP1;P2;durP2;ratioP2
58878;SDS011;44660;42.664;23.266;2022-09-12T00:00:25;4.65;;;4.13;;
58878;SDS011;44660;42.664;23.266;2022-09-12T00:02:51;5.53;;;3.83;;
58878;SDS011;44660;42.664;23.266;2022-09-12T00:05:18;4.95;;;4.07;;
58878;SDS011;44660;42.664;23.266;2022-09-12T00:07:43;6.13;;;4.18;;
58878;SDS011;44660;42.664;23.266;2022-09-12T00:10:09;5.38;;;4.20;;
58878;SDS011;44660;42.664;23.266;2022-09-12T00:12:34;5.57;;;4.00;;
58878;SDS011;44660;42.664;23.266;2022-09-12T00:15:00;5.70;;;3.90;;
58878;SDS011;44660;42.664;23.266;2022-09-12T00:17:25;4.10;;;3.70;;
58878;SDS011;44660;42.664;23.266;2022-09-12T00:19:51;5.43;;;3.80;;
58878;SDS011;44660;42.664;23.266;2022-09-12T00:22:17;5.78;;;4.00;;
58878;SDS011;44660;42.664;23.266;2022-09-12T00:24:42;4.80;;;4.00;;
58878;SDS011;44660;42.664;23.266;2022-09-12T00:27:08;4.50;;;3.42;;
58878;SDS011;44660;42.664;23.266;2022-09-12T00:29:33;4.80;;;3.67;;
58878;SDS011;44660;42.664;23.266;2022-09-12T00:31:59;4.18;;;3.78;;
58878;SDS011;44660;42.664;23.266;2022-09-12T00:34:24;6.43;;;3.28;;
58878;SDS011;44660;42.664;23.266;2022-09-12T00:36:49;3.70;;;3.40;;
58878;SDS011;44660;42.664;23.266;2022-09-12T00:39:15;4.30;;;3.80;;
58878;SDS011;44660;42.664;23.266;2022-09-12T00:41:41;7.63;;;3.63;;
58878;SDS011;44660;42.664;23.266;2022-09-12T00:46:36;3.97;;;3.58;;
58878;SDS011;44660;42.664;23.266;2022-09-12T00:49:17;3.63;;;2.90;;
58878;SDS011;44660;42.664;23.266;2022-09-12T00:54:35;4.20;;;3.63;;
58878;SDS011;44660;42.664;23.266;2022-09-12T00:57:05;5.03;;;3.60;;
58878;SDS011;44660;42.664;23.266;2022-09-12T00:59:39;3.60;;;3.28;;
58878;SDS011;44660;42.664;23.266;2022-09-12T01:02:08;4.18;;;2.72;;
58878;SDS011;44660;42.664;23.266;2022-09-12T01:04:35;4.30;;;2.75;;
58878;SDS011;44660;42.664;23.266;2022-09-12T01:07:02;3.88;;;3.08;;
58878;SDS011;44660;42.664;23.266;2022-09-12T01:09:30;4.55;;;2.92;;
58878;SDS011;44660;42.664;23.266;2022-09-12T01:11:55;3.08;;;2.80;;
58878;SDS011;44660;42.664;23.266;2022-09-12T01:14:21;3.17;;;2.90;;
58878;SDS011;44660;42.664;23.266;2022-09-12T01:16:47;3.10;;;2.78;;
58878;SDS011;44660;42.664;23.266;2022-09-12T01:22:25;4.30;;;2.38;;
58878;SDS011;44660;42.664;23.266;2022-09-12T01:38:26;2.40;;;2.20;;
58878;SDS011;44660;42.664;23.266;2022-09-12T01:46:09;2.70;;;2.17;;
58878;SDS011;44660;42.664;23.266;2022-09-12T01:48:45;2.95;;;2.20;;
58878;SDS011;44660;42.664;23.266;2022-09-12T01:51:24;23.27;;;14.15;;
58878;SDS011;44660;42.664;23.266;2022-09-12T01:54:11;14.52;;;8.48;;
58878;SDS011;44660;42.664;23.266;2022-09-12T01:56:44;9.65;;;5.68;;
58878;SDS011;44660;42.664;23.266;2022-09-12T02:01:51;3.67;;;2.30;;
58878;SDS011;44660;42.664;23.266;2022-09-12T02:04:31;1.95;;;1.85;;
58878;SDS011;44660;42.664;23.266;2022-09-12T02:07:05;2.58;;;2.17;;
58878;SDS011;44660;42.664;23.266;2022-09-12T02:09:54;2.45;;;2.25;;
58878;SDS011;44660;42.664;23.266;2022-09-12T02:12:26;3.65;;;2.30;;
58878;SDS011;44660;42.664;23.266;2022-09-12T02:15:01;2.42;;;2.10;;
58878;SDS011;44660;42.664;23.266;2022-09-12T02:17:29;2.67;;;2.30;;
58878;SDS011;44660;42.664;23.266;2022-09-12T02:20:07;2.90;;;2.05;;
58878;SDS011;44660;42.664;23.266;2022-09-12T02:22:41;4.10;;;2.10;;
58878;SDS011;44660;42.664;23.266;2022-09-12T02:25:09;1.95;;;1.80;;
58878;SDS011;44660;42.664;23.266;2022-09-12T02:27:58;3.20;;;1.90;;
58878;SDS011;44660;42.664;23.266;2022-09-12T02:30:28;2.60;;;1.70;;
58878;SDS011;44660;42.664;23.266;2022-09-12T02:33:06;2.13;;;1.63;;
58878;SDS011;44660;42.664;23.266;2022-09-12T02:35:57;4.57;;;1.67;;
58878;SDS011;44660;42.664;23.266;2022-09-12T02:38:34;2.05;;;1.80;;
58878;SDS011;44660;42.664;23.266;2022-09-12T02:41:08;3.13;;;2.20;;
58878;SDS011;44660;42.664;23.266;2022-09-12T02:43:34;5.07;;;1.80;;
58878;SDS011;44660;42.664;23.266;2022-09-12T02:46:01;3.42;;;1.92;;
58878;SDS011;44660;42.664;23.266;2022-09-12T02:48:30;2.53;;;1.83;;
58878;SDS011;44660;42.664;23.266;2022-09-12T02:51:01;2.30;;;1.65;;
58878;SDS011;44660;42.664;23.266;2022-09-12T02:53:27;1.60;;;1.42;;
58878;SDS011;44660;42.664;23.266;2022-09-12T02:55:52;1.92;;;1.63;;
58878;SDS011;44660;42.664;23.266;2022-09-12T02:58:19;2.35;;;1.73;;
58878;SDS011;44660;42.664;23.266;2022-09-12T03:06:15;3.80;;;2.20;;
58878;SDS011;44660;42.664;23.266;2022-09-12T03:14:16;2.35;;;1.85;;
58878;SDS011;44660;42.664;23.266;2022-09-12T03:17:09;2.40;;;2.10;;
58878;SDS011;44660;42.664;23.266;2022-09-12T03:22:33;3.95;;;2.08;;
58878;SDS011;44660;42.664;23.266;2022-09-12T03:30:39;2.20;;;1.83;;
58878;SDS011;44660;42.664;23.266;2022-09-12T03:33:09;3.00;;;1.90;;
58878;SDS011;44660;42.664;23.266;2022-09-12T03:35:36;3.05;;;2.22;;
58878;SDS011;44660;42.664;23.266;2022-09-12T03:38:02;2.75;;;2.10;;
58878;SDS011;44660;42.664;23.266;2022-09-12T03:40:27;3.30;;;2.47;;
58878;SDS011;44660;42.664;23.266;2022-09-12T03:42:52;7.32;;;2.60;;
58878;SDS011;44660;42.664;23.266;2022-09-12T03:45:18;3.80;;;2.40;;
58878;SDS011;44660;42.664;23.266;2022-09-12T03:47:44;5.55;;;2.35;;
58878;SDS011;44660;42.664;23.266;2022-09-12T03:50:09;3.00;;;2.08;;
58878;SDS011;44660;42.664;23.266;2022-09-12T03:52:34;2.75;;;2.53;;
58878;SDS011;44660;42.664;23.266;2022-09-12T03:55:00;4.00;;;2.58;;
58878;SDS011;44660;42.664;23.266;2022-09-12T03:57:25;4.55;;;2.60;;
58878;SDS011;44660;42.664;23.266;2022-09-12T03:59:51;6.35;;;3.55;;
58878;SDS011;44660;42.664;23.266;2022-09-12T04:02:16;7.57;;;3.95;;
58878;SDS011;44660;42.664;23.266;2022-09-12T04:04:42;3.88;;;3.22;;
58878;SDS011;44660;42.664;23.266;2022-09-12T04:07:11;4.60;;;3.20;;
58878;SDS011;44660;42.664;23.266;2022-09-12T04:09:36;4.28;;;3.17;;
58878;SDS011;44660;42.664;23.266;2022-09-12T04:12:02;7.35;;;3.55;;
58878;SDS011;44660;42.664;23.266;2022-09-12T04:14:28;5.10;;;3.50;;
58878;SDS011;44660;42.664;23.266;2022-09-12T04:16:53;5.50;;;3.40;;
58878;SDS011;44660;42.664;23.266;2022-09-12T04:19:19;5.97;;;4.00;;
58878;SDS011;44660;42.664;23.266;2022-09-12T04:21:44;5.10;;;3.70;;
58878;SDS011;44660;42.664;23.266;2022-09-12T04:24:10;4.65;;;4.05;;
58878;SDS011;44660;42.664;23.266;2022-09-12T04:26:35;4.57;;;3.70;;
58878;SDS011;44660;42.664;23.266;2022-09-12T04:29:01;8.45;;;4.25;;
58878;SDS011;44660;42.664;23.266;2022-09-12T04:31:26;7.70;;;4.70;;
58878;SDS011;44660;42.664;23.266;2022-09-12T04:33:55;6.93;;;4.60;;
58878;SDS011;44660;42.664;23.266;2022-09-12T04:36:22;24.88;;;17.17;;
58878;SDS011;44660;42.664;23.266;2022-09-12T04:38:48;12.18;;;7.88;;
58878;SDS011;44660;42.664;23.266;2022-09-12T04:41:16;9.25;;;6.50;;
58878;SDS011;44660;42.664;23.266;2022-09-12T04:43:46;13.77;;;8.93;;
58878;SDS011;44660;42.664;23.266;2022-09-12T04:46:16;8.90;;;6.88;;
58878;SDS011;44660;42.664;23.266;2022-09-12T04:48:44;7.93;;;6.63;;
58878;SDS011;44660;42.664;23.266;2022-09-12T04:51:11;11.05;;;6.20;;
58878;SDS011;44660;42.664;23.266;2022-09-12T04:53:41;12.88;;;8.13;;
58878;SDS011;44660;42.664;23.266;2022-09-12T04:56:08;12.57;;;7.53;;
58878;SDS011;44660;42.664;23.266;2022-09-12T04:58:35;14.18;;;9.57;;
58878;SDS011;44660;42.664;23.266;2022-09-12T05:03:30;5.85;;;4.32;;
58878;SDS011;44660;42.664;23.266;2022-09-12T05:05:56;6.60;;;4.47;;
58878;SDS011;44660;42.664;23.266;2022-09-12T05:08:21;7.90;;;4.03;;
58878;SDS011;44660;42.664;23.266;2022-09-12T05:10:47;5.00;;;4.15;;
58878;SDS011;44660;42.664;23.266;2022-09-12T05:13:12;6.30;;;4.40;;
58878;SDS011;44660;42.664;23.266;2022-09-12T05:15:37;4.70;;;3.83;;
58878;SDS011;44660;42.664;23.266;2022-09-12T05:18:04;8.43;;;4.00;;
58878;SDS011;44660;42.664;23.266;2022-09-12T05:20:31;5.32;;;3.40;;
58878;SDS011;44660;42.664;23.266;2022-09-12T05:22:57;8.90;;;4.10;;
58878;SDS011;44660;42.664;23.266;2022-09-12T05:25:23;6.40;;;3.60;;
58878;SDS011;44660;42.664;23.266;2022-09-12T05:27:51;6.30;;;3.60;;
58878;SDS011;44660;42.664;23.266;2022-09-12T05:30:17;4.47;;;3.50;;
58878;SDS011;44660;42.664;23.266;2022-09-12T05:32:42;5.75;;;3.78;;
58878;SDS011;44660;42.664;23.266;2022-09-12T05:35:08;3.85;;;3.47;;
58878;SDS011;44660;42.664;23.266;2022-09-12T05:37:33;6.78;;;3.45;;
58878;SDS011;44660;42.664;23.266;2022-09-12T05:39:59;7.78;;;5.40;;
58878;SDS011;44660;42.664;23.266;2022-09-12T05:42:24;8.85;;;4.75;;
58878;SDS011;44660;42.664;23.266;2022-09-12T05:44:50;5.70;;;4.13;;
58878;SDS011;44660;42.664;23.266;2022-09-12T05:47:15;11.85;;;7.28;;
58878;SDS011;44660;42.664;23.266;2022-09-12T05:49:41;8.48;;;6.30;;
58878;SDS011;44660;42.664;23.266;2022-09-12T05:52:09;7.55;;;5.53;;
58878;SDS011;44660;42.664;23.266;2022-09-12T05:54:34;5.38;;;4.72;;
58878;SDS011;44660;42.664;23.266;2022-09-12T05:57:00;5.55;;;3.90;;
58878;SDS011;44660;42.664;23.266;2022-09-12T05:59:25;5.53;;;4.07;;
58878;SDS011;44660;42.664;23.266;2022-09-12T06:01:52;4.40;;;4.00;;
58878;SDS011;44660;42.664;23.266;2022-09-12T06:04:17;6.22;;;4.25;;
58878;SDS011;44660;42.664;23.266;2022-09-12T06:06:43;8.32;;;3.72;;
58878;SDS011;44660;42.664;23.266;2022-09-12T06:09:09;7.25;;;4.00;;
58878;SDS011;44660;42.664;23.266;2022-09-12T06:11:36;6.40;;;4.15;;
58878;SDS011;44660;42.664;23.266;2022-09-12T06:14:04;4.45;;;4.05;;
58878;SDS011;44660;42.664;23.266;2022-09-12T06:16:31;5.15;;;3.78;;
58878;SDS011;44660;42.664;23.266;2022-09-12T06:18:59;3.95;;;3.58;;
58878;SDS011;44660;42.664;23.266;2022-09-12T06:21:26;4.30;;;3.90;;
58878;SDS011;44660;42.664;23.266;2022-09-12T06:23:53;6.25;;;4.20;;
58878;SDS011;44660;42.664;23.266;2022-09-12T06:26:19;3.95;;;3.65;;
58878;SDS011;44660;42.664;23.266;2022-09-12T06:28:47;4.70;;;3.90;;
58878;SDS011;44660;42.664;23.266;2022-09-12T06:31:18;4.85;;;4.25;;
58878;SDS011;44660;42.664;23.266;2022-09-12T06:33:46;4.63;;;4.10;;
58878;SDS011;44660;42.664;23.266;2022-09-12T06:36:14;4.65;;;4.20;;
58878;SDS011;44660;42.664;23.266;2022-09-12T06:38:47;5.95;;;4.35;;
58878;SDS011;44660;42.664;23.266;2022-09-12T06:41:19;5.10;;;4.68;;
58878;SDS011;44660;42.664;23.266;2022-09-12T06:43:44;6.28;;;5.68;;
58878;SDS011;44660;42.664;23.266;2022-09-12T06:46:10;10.52;;;7.28;;
58878;SDS011;44660;42.664;23.266;2022-09-12T06:48:37;8.00;;;5.75;;
58878;SDS011;44660;42.664;23.266;2022-09-12T06:51:03;5.07;;;4.32;;
58878;SDS011;44660;42.664;23.266;2022-09-12T06:53:35;5.05;;;4.63;;
58878;SDS011;44660;42.664;23.266;2022-09-12T06:56:02;4.50;;;4.13;;
58878;SDS011;44660;42.664;23.266;2022-09-12T06:58:31;4.78;;;4.38;;
58878;SDS011;44660;42.664;23.266;2022-09-12T07:01:19;5.55;;;3.95;;
58878;SDS011;44660;42.664;23.266;2022-09-12T07:03:51;6.10;;;4.20;;
58878;SDS011;44660;42.664;23.266;2022-09-12T07:06:18;4.85;;;4.07;;
58878;SDS011;44660;42.664;23.266;2022-09-12T07:08:45;6.25;;;3.85;;
58878;SDS011;44660;42.664;23.266;2022-09-12T07:11:18;4.57;;;3.95;;
58878;SDS011;44660;42.664;23.266;2022-09-12T07:13:46;4.47;;;4.07;;
58878;SDS011;44660;42.664;23.266;2022-09-12T07:16:13;5.22;;;4.15;;
58878;SDS011;44660;42.664;23.266;2022-09-12T07:18:39;4.38;;;3.97;;
58878;SDS011;44660;42.664;23.266;2022-09-12T07:21:06;6.25;;;4.35;;
58878;SDS011;44660;42.664;23.266;2022-09-12T07:23:34;4.32;;;3.72;;
58878;SDS011;44660;42.664;23.266;2022-09-12T07:25:59;3.70;;;3.30;;
58878;SDS011;44660;42.664;23.266;2022-09-12T07:28:26;4.32;;;3.90;;
58878;SDS011;44660;42.664;23.266;2022-09-12T07:30:53;3.70;;;3.40;;
58878;SDS011;44660;42.664;23.266;2022-09-12T07:33:19;3.75;;;3.45;;
58878;SDS011;44660;42.664;23.266;2022-09-12T07:35:45;5.95;;;3.33;;
58878;SDS011;44660;42.664;23.266;2022-09-12T07:38:10;3.97;;;3.42;;
58878;SDS011;44660;42.664;23.266;2022-09-12T07:40:36;3.78;;;3.28;;
58878;SDS011;44660;42.664;23.266;2022-09-12T07:43:01;3.58;;;3.25;;
58878;SDS011;44660;42.664;23.266;2022-09-12T07:45:27;3.30;;;3.00;;
58878;SDS011;44660;42.664;23.266;2022-09-12T07:47:53;5.18;;;2.70;;
58878;SDS011;44660;42.664;23.266;2022-09-12T07:50:19;3.20;;;2.70;;
58878;SDS011;44660;42.664;23.266;2022-09-12T07:52:44;2.40;;;2.20;;
58878;SDS011;44660;42.664;23.266;2022-09-12T07:55:09;5.10;;;2.15;;
58878;SDS011;44660;42.664;23.266;2022-09-12T07:57:35;2.00;;;1.90;;
58878;SDS011;44660;42.664;23.266;2022-09-12T08:00:00;2.35;;;1.80;;
58878;SDS011;44660;42.664;23.266;2022-09-12T08:02:27;1.98;;;1.83;;
58878;SDS011;44660;42.664;23.266;2022-09-12T08:04:53;2.58;;;2.20;;
58878;SDS011;44660;42.664;23.266;2022-09-12T08:07:18;4.72;;;2.22;;
58878;SDS011;44660;42.664;23.266;2022-09-12T08:09:44;2.70;;;1.95;;
58878;SDS011;44660;42.664;23.266;2022-09-12T08:12:10;3.05;;;2.08;;
58878;SDS011;44660;42.664;23.266;2022-09-12T08:14:35;5.00;;;1.80;;
58878;SDS011;44660;42.664;23.266;2022-09-12T08:17:01;1.90;;;1.80;;
58878;SDS011;44660;42.664;23.266;2022-09-12T08:19:26;2.72;;;1.73;;
58878;SDS011;44660;42.664;23.266;2022-09-12T08:21:52;1.70;;;1.60;;
58878;SDS011;44660;42.664;23.266;2022-09-12T08:24:17;1.52;;;1.42;;
58878;SDS011;44660;42.664;23.266;2022-09-12T08:26:42;1.67;;;1.40;;
58878;SDS011;44660;42.664;23.266;2022-09-12T08:29:08;1.98;;;1.30;;
58878;SDS011;44660;42.664;23.266;2022-09-12T08:31:33;3.83;;;1.67;;
58878;SDS011;44660;42.664;23.266;2022-09-12T08:34:01;3.67;;;1.60;;
58878;SDS011;44660;42.664;23.266;2022-09-12T08:36:28;1.75;;;1.63;;
58878;SDS011;44660;42.664;23.266;2022-09-12T08:38:54;1.85;;;1.33;;
58878;SDS011;44660;42.664;23.266;2022-09-12T08:41:35;3.30;;;1.60;;
58878;SDS011;44660;42.664;23.266;2022-09-12T08:49:03;1.65;;;1.55;;
58878;SDS011;44660;42.664;23.266;2022-09-12T08:51:33;2.13;;;1.38;;
58878;SDS011;44660;42.664;23.266;2022-09-12T08:54:00;1.80;;;1.70;;
58878;SDS011;44660;42.664;23.266;2022-09-12T08:56:29;3.22;;;1.80;;
58878;SDS011;44660;42.664;23.266;2022-09-12T08:59:00;2.40;;;1.70;;
58878;SDS011;44660;42.664;23.266;2022-09-12T09:01:29;3.05;;;1.70;;
58878;SDS011;44660;42.664;23.266;2022-09-12T09:09:19;1.77;;;1.67;;
58878;SDS011;44660;42.664;23.266;2022-09-12T09:17:36;2.40;;;1.85;;
58878;SDS011;44660;42.664;23.266;2022-09-12T09:20:09;2.60;;;1.70;;
58878;SDS011;44660;42.664;23.266;2022-09-12T09:22:41;3.38;;;1.80;;
58878;SDS011;44660;42.664;23.266;2022-09-12T09:25:21;3.35;;;1.90;;
58878;SDS011;44660;42.664;23.266;2022-09-12T09:30:19;2.92;;;2.30;;
58878;SDS011;44660;42.664;23.266;2022-09-12T09:32:49;2.00;;;1.90;;
58878;SDS011;44660;42.664;23.266;2022-09-12T09:38:36;4.25;;;2.10;;
58878;SDS011;44660;42.664;23.266;2022-09-12T09:43:44;2.42;;;2.10;;
58878;SDS011;44660;42.664;23.266;2022-09-12T09:46:10;3.92;;;2.17;;
58878;SDS011;44660;42.664;23.266;2022-09-12T09:48:39;4.28;;;2.15;;
58878;SDS011;44660;42.664;23.266;2022-09-12T09:51:08;2.60;;;2.40;;
58878;SDS011;44660;42.664;23.266;2022-09-12T09:53:36;2.90;;;2.70;;
58878;SDS011;44660;42.664;23.266;2022-09-12T09:59:09;3.72;;;2.40;;
58878;SDS011;44660;42.664;23.266;2022-09-12T10:04:23;2.60;;;2.40;;
58878;SDS011;44660;42.664;23.266;2022-09-12T10:09:18;2.58;;;2.38;;
58878;SDS011;44660;42.664;23.266;2022-09-12T10:11:46;3.10;;;2.80;;
58878;SDS011;44660;42.664;23.266;2022-09-12T10:17:31;2.92;;;2.38;;
58878;SDS011;44660;42.664;23.266;2022-09-12T10:20:26;3.20;;;2.90;;
58878;SDS011;44660;42.664;23.266;2022-09-12T10:25:46;4.18;;;3.10;;
58878;SDS011;44660;42.664;23.266;2022-09-12T10:28:21;3.45;;;3.00;;
58878;SDS011;44660;42.664;23.266;2022-09-12T10:30:53;3.47;;;3.10;;
58878;SDS011;44660;42.664;23.266;2022-09-12T10:33:20;3.70;;;3.40;;
58878;SDS011;44660;42.664;23.266;2022-09-12T10:35:49;3.72;;;3.42;;
58878;SDS011;44660;42.664;23.266;2022-09-12T10:41:04;3.60;;;3.30;;
58878;SDS011;44660;42.664;23.266;2022-09-12T10:48:39;3.90;;;3.58;;
58878;SDS011;44660;42.664;23.266;2022-09-12T10:51:11;3.70;;;3.40;;
58878;SDS011;44660;42.664;23.266;2022-09-12T10:53:58;4.32;;;3.72;;
58878;SDS011;44660;42.664;23.266;2022-09-12T11:01:54;4.32;;;3.92;;
58878;SDS011;44660;42.664;23.266;2022-09-12T11:07:42;3.55;;;3.25;;
58878;SDS011;44660;42.664;23.266;2022-09-12T11:39:58;4.68;;;4.28;;
58878;SDS011;44660;42.664;23.266;2022-09-12T11:42:32;7.93;;;5.10;;
58878;SDS011;44660;42.664;23.266;2022-09-12T11:45:08;7.72;;;5.10;;
58878;SDS011;44660;42.664;23.266;2022-09-12T11:47:39;5.20;;;4.20;;
58878;SDS011;44660;42.664;23.266;2022-09-12T11:50:22;6.53;;;4.40;;
58878;SDS011;44660;42.664;23.266;2022-09-12T11:52:51;4.50;;;4.20;;
58878;SDS011;44660;42.664;23.266;2022-09-12T11:55:24;5.30;;;4.53;;
58878;SDS011;44660;42.664;23.266;2022-09-12T11:57:55;5.25;;;4.75;;
58878;SDS011;44660;42.664;23.266;2022-09-12T12:00:26;5.10;;;4.60;;
58878;SDS011;44660;42.664;23.266;2022-09-12T12:08:25;6.55;;;4.18;;
58878;SDS011;44660;42.664;23.266;2022-09-12T12:10:57;3.65;;;3.25;;
58878;SDS011;44660;42.664;23.266;2022-09-12T12:13:31;3.80;;;3.40;;
58878;SDS011;44660;42.664;23.266;2022-09-12T12:16:19;3.22;;;2.95;;
58878;SDS011;44660;42.664;23.266;2022-09-12T12:18:52;3.67;;;3.38;;
58878;SDS011;44660;42.664;23.266;2022-09-12T12:24:22;3.15;;;2.75;;
58878;SDS011;44660;42.664;23.266;2022-09-12T12:27:00;5.47;;;3.30;;
58878;SDS011;44660;42.664;23.266;2022-09-12T12:29:46;4.57;;;3.28;;
58878;SDS011;44660;42.664;23.266;2022-09-12T12:34:41;2.80;;;2.60;;
58878;SDS011;44660;42.664;23.266;2022-09-12T12:42:09;3.45;;;3.08;;
58878;SDS011;44660;42.664;23.266;2022-09-12T12:47:22;2.38;;;2.17;;
58878;SDS011;44660;42.664;23.266;2022-09-12T12:49:55;2.40;;;2.20;;
58878;SDS011;44660;42.664;23.266;2022-09-12T12:52:29;2.40;;;2.20;;
58878;SDS011;44660;42.664;23.266;2022-09-12T12:54:58;2.72;;;2.25;;
58878;SDS011;44660;42.664;23.266;2022-09-12T12:57:26;6.00;;;2.70;;
58878;SDS011;44660;42.664;23.266;2022-09-12T13:02:32;3.67;;;2.42;;
58878;SDS011;44660;42.664;23.266;2022-09-12T13:05:09;2.65;;;2.45;;
58878;SDS011;44660;42.664;23.266;2022-09-12T13:07:53;7.95;;;3.05;;
58878;SDS011;44660;42.664;23.266;2022-09-12T13:10:24;3.17;;;2.90;;
58878;SDS011;44660;42.664;23.266;2022-09-12T13:12:53;3.30;;;2.90;;
58878;SDS011;44660;42.664;23.266;2022-09-12T13:18:16;3.92;;;3.00;;
58878;SDS011;44660;42.664;23.266;2022-09-12T13:20:54;3.10;;;2.90;;
58878;SDS011;44660;42.664;23.266;2022-09-12T13:23:29;2.85;;;2.65;;
58878;SDS011;44660;42.664;23.266;2022-09-12T13:25:57;3.63;;;3.30;;
58878;SDS011;44660;42.664;23.266;2022-09-12T13:28:24;3.40;;;3.10;;
58878;SDS011;44660;42.664;23.266;2022-09-12T13:31:02;3.00;;;2.80;;
58878;SDS011;44660;42.664;23.266;2022-09-12T13:33:46;3.58;;;3.28;;
58878;SDS011;44660;42.664;23.266;2022-09-12T13:38:58;3.17;;;2.92;;
58878;SDS011;44660;42.664;23.266;2022-09-12T13:44:28;2.95;;;2.67;;
58878;SDS011;44660;42.664;23.266;2022-09-12T13:46:57;3.13;;;2.90;;
58878;SDS011;44660;42.664;23.266;2022-09-12T13:49:34;3.35;;;3.13;;
58878;SDS011;44660;42.664;23.266;2022-09-12T13:54:28;3.80;;;3.47;;
58878;SDS011;44660;42.664;23.266;2022-09-12T13:56:54;4.43;;;3.85;;
58878;SDS011;44660;42.664;23.266;2022-09-12T13:59:20;5.75;;;4.45;;
58878;SDS011;44660;42.664;23.266;2022-09-12T14:01:46;5.05;;;4.00;;
58878;SDS011;44660;42.664;23.266;2022-09-12T14:04:20;4.20;;;3.90;;
58878;SDS011;44660;42.664;23.266;2022-09-12T14:09:45;10.60;;;8.02;;
58878;SDS011;44660;42.664;23.266;2022-09-12T14:12:22;7.05;;;5.78;;
58878;SDS011;44660;42.664;23.266;2022-09-12T14:14:51;8.35;;;7.43;;
58878;SDS011;44660;42.664;23.266;2022-09-12T14:17:17;5.18;;;4.78;;
58878;SDS011;44660;42.664;23.266;2022-09-12T14:19:48;4.60;;;4.20;;
58878;SDS011;44660;42.664;23.266;2022-09-12T14:22:15;4.93;;;4.50;;
58878;SDS011;44660;42.664;23.266;2022-09-12T14:24:47;4.70;;;4.30;;
58878;SDS011;44660;42.664;23.266;2022-09-12T14:27:21;4.60;;;4.13;;
58878;SDS011;44660;42.664;23.266;2022-09-12T14:29:52;4.60;;;4.20;;
58878;SDS011;44660;42.664;23.266;2022-09-12T14:32:26;4.63;;;4.05;;
58878;SDS011;44660;42.664;23.266;2022-09-12T14:37:30;4.10;;;3.80;;
58878;SDS011;44660;42.664;23.266;2022-09-12T14:39:56;6.95;;;3.85;;
58878;SDS011;44660;42.664;23.266;2022-09-12T14:42:22;4.47;;;4.07;;
58878;SDS011;44660;42.664;23.266;2022-09-12T14:44:59;4.75;;;4.35;;
58878;SDS011;44660;42.664;23.266;2022-09-12T14:47:28;4.65;;;4.25;;
58878;SDS011;44660;42.664;23.266;2022-09-12T14:50:03;4.55;;;4.15;;
58878;SDS011;44660;42.664;23.266;2022-09-12T14:52:37;4.18;;;3.88;;
58878;SDS011;44660;42.664;23.266;2022-09-12T14:55:18;4.00;;;3.70;;
58878;SDS011;44660;42.664;23.266;2022-09-12T14:57:46;4.50;;;3.80;;
58878;SDS011;44660;42.664;23.266;2022-09-12T15:00:15;4.15;;;3.72;;
58878;SDS011;44660;42.664;23.266;2022-09-12T15:02:45;4.20;;;3.83;;
58878;SDS011;44660;42.664;23.266;2022-09-12T15:07:41;8.77;;;3.60;;
58878;SDS011;44660;42.664;23.266;2022-09-12T15:13:02;4.32;;;3.67;;
58878;SDS011;44660;42.664;23.266;2022-09-12T15:15:38;4.32;;;3.92;;
58878;SDS011;44660;42.664;23.266;2022-09-12T15:18:05;3.83;;;3.53;;
58878;SDS011;44660;42.664;23.266;2022-09-12T15:20:31;4.95;;;4.43;;
58878;SDS011;44660;42.664;23.266;2022-09-12T15:22:57;3.88;;;3.58;;
58878;SDS011;44660;42.664;23.266;2022-09-12T15:25:23;10.95;;;8.25;;
58878;SDS011;44660;42.664;23.266;2022-09-12T15:27:49;5.70;;;4.80;;
58878;SDS011;44660;42.664;23.266;2022-09-12T15:30:16;8.90;;;7.53;;
58878;SDS011;44660;42.664;23.266;2022-09-12T15:32:42;4.75;;;4.13;;
58878;SDS011;44660;42.664;23.266;2022-09-12T15:35:10;4.80;;;4.30;;
58878;SDS011;44660;42.664;23.266;2022-09-12T15:37:40;4.85;;;4.35;;
58878;SDS011;44660;42.664;23.266;2022-09-12T15:40:05;4.10;;;3.80;;
58878;SDS011;44660;42.664;23.266;2022-09-12T15:42:32;4.97;;;4.55;;
58878;SDS011;44660;42.664;23.266;2022-09-12T15:44:57;5.65;;;4.35;;
58878;SDS011;44660;42.664;23.266;2022-09-12T15:47:24;4.60;;;4.25;;
58878;SDS011;44660;42.664;23.266;2022-09-12T15:49:50;4.47;;;4.18;;
58878;SDS011;44660;42.664;23.266;2022-09-12T15:52:15;5.32;;;4.82;;
58878;SDS011;44660;42.664;23.266;2022-09-12T15:54:41;4.90;;;4.13;;
58878;SDS011;44660;42.664;23.266;2022-09-12T15:57:07;5.03;;;4.50;;
58878;SDS011;44660;42.664;23.266;2022-09-12T15:59:33;4.88;;;4.38;;
58878;SDS011;44660;42.664;23.266;2022-09-12T16:01:59;5.13;;;4.63;;
58878;SDS011;44660;42.664;23.266;2022-09-12T16:04:25;8.18;;;5.82;;
58878;SDS011;44660;42.664;23.266;2022-09-12T16:06:52;6.75;;;5.25;;
58878;SDS011;44660;42.664;23.266;2022-09-12T16:09:19;5.00;;;4.50;;
58878;SDS011;44660;42.664;23.266;2022-09-12T16:11:45;5.75;;;4.13;;
58878;SDS011;44660;42.664;23.266;2022-09-12T16:14:14;3.83;;;3.47;;
58878;SDS011;44660;42.664;23.266;2022-09-12T16:16:41;4.97;;;4.38;;
58878;SDS011;44660;42.664;23.266;2022-09-12T16:19:07;5.10;;;3.90;;
58878;SDS011;44660;42.664;23.266;2022-09-12T16:21:34;4.70;;;3.78;;
58878;SDS011;44660;42.664;23.266;2022-09-12T16:24:00;4.53;;;4.13;;
58878;SDS011;44660;42.664;23.266;2022-09-12T16:26:26;4.93;;;4.40;;
58878;SDS011;44660;42.664;23.266;2022-09-12T16:28:57;6.45;;;4.30;;
58878;SDS011;44660;42.664;23.266;2022-09-12T16:31:24;6.05;;;4.90;;
58878;SDS011;44660;42.664;23.266;2022-09-12T16:33:50;4.43;;;4.03;;
58878;SDS011;44660;42.664;23.266;2022-09-12T16:36:17;10.32;;;7.25;;
58878;SDS011;44660;42.664;23.266;2022-09-12T16:38:47;4.70;;;4.30;;
58878;SDS011;44660;42.664;23.266;2022-09-12T16:41:16;5.25;;;4.25;;
58878;SDS011;44660;42.664;23.266;2022-09-12T16:43:42;6.00;;;4.50;;
58878;SDS011;44660;42.664;23.266;2022-09-12T16:46:10;4.05;;;3.53;;
58878;SDS011;44660;42.664;23.266;2022-09-12T16:48:40;4.10;;;3.80;;
58878;SDS011;44660;42.664;23.266;2022-09-12T16:51:17;6.40;;;5.13;;
58878;SDS011;44660;42.664;23.266;2022-09-12T16:53:46;7.47;;;5.43;;
58878;SDS011;44660;42.664;23.266;2022-09-12T16:56:12;8.07;;;4.47;;
58878;SDS011;44660;42.664;23.266;2022-09-12T16:58:39;5.13;;;4.47;;
58878;SDS011;44660;42.664;23.266;2022-09-12T17:03:35;5.30;;;4.80;;
58878;SDS011;44660;42.664;23.266;2022-09-12T17:06:04;7.72;;;4.25;;
58878;SDS011;44660;42.664;23.266;2022-09-12T17:08:32;4.78;;;4.35;;
58878;SDS011;44660;42.664;23.266;2022-09-12T17:11:03;4.97;;;4.43;;
58878;SDS011;44660;42.664;23.266;2022-09-12T17:13:31;5.65;;;5.15;;
58878;SDS011;44660;42.664;23.266;2022-09-12T17:15:56;7.53;;;5.50;;
58878;SDS011;44660;42.664;23.266;2022-09-12T17:18:22;10.82;;;6.47;;
58878;SDS011;44660;42.664;23.266;2022-09-12T17:20:48;14.38;;;9.05;;
58878;SDS011;44660;42.664;23.266;2022-09-12T17:23:14;8.35;;;5.93;;
58878;SDS011;44660;42.664;23.266;2022-09-12T17:25:40;9.48;;;7.10;;
58878;SDS011;44660;42.664;23.266;2022-09-12T17:30:34;7.15;;;4.20;;
58878;SDS011;44660;42.664;23.266;2022-09-12T17:33:01;6.78;;;4.90;;
58878;SDS011;44660;42.664;23.266;2022-09-12T17:35:26;5.07;;;4.00;;
58878;SDS011;44660;42.664;23.266;2022-09-12T17:37:52;4.97;;;3.90;;
58878;SDS011;44660;42.664;23.266;2022-09-12T17:40:18;4.78;;;3.50;;
58878;SDS011;44660;42.664;23.266;2022-09-12T17:42:44;3.92;;;3.50;;
58878;SDS011;44660;42.664;23.266;2022-09-12T17:45:10;4.43;;;3.10;;
58878;SDS011;44660;42.664;23.266;2022-09-12T17:47:36;4.18;;;3.60;;